Time;durP1;ratioP1;P1;durP2;ratioP2;P2;SDS_P1;SDS_P2;PMS_P1;PMS_P2;Temp;Humidity;BMP_temperature;BMP_pressure;BME280_temperature;BME280_humidity;BME280_pressure;Samples;Min_cycle;Max_cycle;Signal;HPM_P1;HPM_P2
2021/12/25 00:02:54;;;;;;;29.13;14.63;;;7.80;65.80;;;;;;6248695;28;20034;-72
2021/12/25 00:05:56;;;;;;;31.60;14.55;;;7.80;66.00;;;;;;6246797;28;20099;-73
2021/12/25 00:08:57;;;;;;;44.30;15.82;;;7.80;65.90;;;;;;6247960;28;20361;-71
2021/12/25 00:11:58;;;;;;;36.90;15.63;;;7.80;66.10;;;;;;6245753;28;20052;-71
2021/12/25 00:15:00;;;;;;;40.10;16.60;;;7.70;66.00;;;;;;6264230;28;20458;-70
2021/12/25 00:18:01;;;;;;;34.95;15.73;;;7.80;66.20;;;;;;6272680;28;20032;-71
2021/12/25 00:21:03;;;;;;;35.53;14.07;;;7.80;66.20;;;;;;6266145;28;20110;-71
2021/12/25 00:24:04;;;;;;;32.88;15.20;;;7.80;66.10;;;;;;6246765;28;20048;-72
2021/12/25 00:27:21;;;;;;;34.92;16.42;;;7.80;66.10;;;;;;6247321;28;20040;-71
2021/12/25 00:30:36;;;;;;;33.90;14.80;;;7.80;66.10;;;;;;6230287;28;20469;-72
2021/12/25 00:36:43;;;;;;;27.25;12.65;;;7.90;66.10;;;;;;6245086;28;20099;-71
2021/12/25 00:39:45;;;;;;;33.53;15.10;;;8.00;66.10;;;;;;6228698;28;20053;-71
2021/12/25 00:42:46;;;;;;;37.38;13.65;;;8.00;65.90;;;;;;6245119;28;20037;-72
2021/12/25 00:45:48;;;;;;;37.35;14.20;;;8.10;65.90;;;;;;6269401;28;20037;-71
2021/12/25 00:48:50;;;;;;;32.30;13.18;;;8.10;65.80;;;;;;6273225;28;20041;-72
2021/12/25 00:51:51;;;;;;;33.20;13.70;;;8.10;65.60;;;;;;6274366;28;20037;-72
2021/12/25 00:54:52;;;;;;;37.25;14.80;;;8.20;65.50;;;;;;6254186;28;20521;-72
2021/12/25 00:57:53;;;;;;;40.88;15.70;;;8.20;65.40;;;;;;6274111;28;20051;-71
2021/12/25 01:00:54;;;;;;;31.38;13.27;;;8.20;65.30;;;;;;6236352;28;20042;-71
2021/12/25 01:03:57;;;;;;;32.67;14.07;;;8.10;65.30;;;;;;6242907;28;20478;-71
2021/12/25 01:06:59;;;;;;;39.45;15.10;;;8.10;65.40;;;;;;6249303;28;20424;-72
2021/12/25 01:10:03;;;;;;;33.85;14.23;;;8.00;65.50;;;;;;6265907;28;20069;-72
2021/12/25 01:32:55;;;;;;;28.90;12.85;;;8.10;65.60;;;;;;6240307;28;19914;-71
2021/12/25 01:40:15;;;;;;;31.63;12.30;;;8.00;65.70;;;;;;6152827;28;20039;-71
2021/12/25 01:50:27;;;;;;;33.03;12.93;;;7.90;65.90;;;;;;6169815;28;19947;-72
2021/12/25 01:53:29;;;;;;;34.25;11.85;;;7.80;65.90;;;;;;6150656;28;20123;-70
2021/12/25 01:56:30;;;;;;;26.02;11.88;;;7.80;66.00;;;;;;6125066;29;20040;-72
2021/12/25 01:59:31;;;;;;;25.73;11.70;;;7.70;66.00;;;;;;6136575;28;20503;-72
2021/12/25 02:02:33;;;;;;;28.15;13.00;;;7.70;66.30;;;;;;6161815;28;20035;-71
2021/12/25 02:05:34;;;;;;;30.67;12.65;;;7.70;66.40;;;;;;6163893;28;20046;-71
2021/12/25 02:08:36;;;;;;;26.40;12.40;;;7.70;66.50;;;;;;6205963;28;20030;-70
2021/12/25 02:11:37;;;;;;;26.88;11.95;;;7.70;66.40;;;;;;6222140;28;20068;-72
2021/12/25 02:14:42;;;;;;;30.38;14.13;;;7.70;66.30;;;;;;6250814;28;20207;-71
2021/12/25 02:21:19;;;;;;;23.77;11.88;;;7.80;66.20;;;;;;6262580;28;20048;-71
2021/12/25 02:24:20;;;;;;;28.13;12.10;;;7.80;66.20;;;;;;6230308;28;20064;-71
2021/12/25 02:27:21;;;;;;;22.40;10.93;;;7.80;66.10;;;;;;6231010;28;20037;-71
2021/12/25 02:30:22;;;;;;;28.60;12.27;;;7.80;66.00;;;;;;6248222;28;20037;-71
2021/12/25 02:33:27;;;;;;;32.45;12.50;;;7.80;66.00;;;;;;6248172;28;20084;-72
2021/12/25 02:36:28;;;;;;;27.88;13.15;;;7.80;66.00;;;;;;6244857;28;20052;-72
2021/12/25 02:39:29;;;;;;;29.02;13.40;;;7.80;66.00;;;;;;6247214;28;20124;-71
2021/12/25 02:42:30;;;;;;;31.58;12.73;;;7.80;65.90;;;;;;6247123;28;20029;-71
2021/12/25 02:45:32;;;;;;;28.17;12.75;;;7.80;66.00;;;;;;6249311;28;20040;-71
2021/12/25 02:48:36;;;;;;;35.63;14.27;;;7.70;66.10;;;;;;6248360;28;20090;-71
2021/12/25 02:51:38;;;;;;;29.83;12.70;;;7.70;66.30;;;;;;6223684;28;20041;-71
2021/12/25 02:54:40;;;;;;;28.60;12.32;;;7.70;66.40;;;;;;6223525;28;20096;-72
2021/12/25 02:57:41;;;;;;;28.67;11.50;;;7.60;66.60;;;;;;6239789;28;20061;-71
2021/12/25 03:01:04;;;;;;;23.92;10.30;;;7.60;66.70;;;;;;6243262;28;20117;-71
2021/12/25 03:04:06;;;;;;;23.35;11.25;;;7.70;66.80;;;;;;6247172;28;20093;-70
2021/12/25 03:07:08;;;;;;;28.73;11.38;;;7.70;66.80;;;;;;6247720;28;20041;-71
2021/12/25 03:10:12;;;;;;;22.20;11.13;;;7.70;66.70;;;;;;6246016;28;20046;-71
2021/12/25 03:16:15;;;;;;;25.08;11.23;;;7.80;66.70;;;;;;6270942;28;20044;-71
2021/12/25 03:19:23;;;;;;;28.75;12.50;;;7.70;66.60;;;;;;6253466;28;20037;-71
2021/12/25 03:22:24;;;;;;;23.35;11.00;;;7.70;66.60;;;;;;6270385;28;20083;-70
2021/12/25 03:25:25;;;;;;;22.90;10.48;;;7.70;66.60;;;;;;6271863;28;20036;-71
2021/12/25 03:28:30;;;;;;;22.70;9.80;;;7.70;66.70;;;;;;6265250;28;20041;-71
2021/12/25 03:31:31;;;;;;;26.73;10.60;;;7.70;66.70;;;;;;6236799;28;20041;-72
2021/12/25 03:34:33;;;;;;;26.13;11.35;;;7.70;66.70;;;;;;6244853;28;20033;-72
2021/12/25 03:37:34;;;;;;;22.45;9.80;;;7.70;66.60;;;;;;6243727;28;20053;-72
2021/12/25 03:40:35;;;;;;;25.55;11.68;;;7.60;66.50;;;;;;6246041;28;20037;-72
2021/12/25 03:43:39;;;;;;;26.60;10.90;;;7.60;66.60;;;;;;6252852;28;20041;-72
2021/12/25 03:46:40;;;;;;;27.58;11.95;;;7.50;66.60;;;;;;6256799;28;20029;-72
2021/12/25 03:53:25;;;;;;;32.78;12.50;;;7.30;66.80;;;;;;6171474;28;20035;-70
2021/12/25 03:59:55;;;;;;;24.42;11.23;;;7.20;67.40;;;;;;6170975;28;20047;-71
2021/12/25 04:03:02;;;;;;;24.70;10.27;;;7.20;67.50;;;;;;6148908;28;20046;-71
2021/12/25 04:06:16;;;;;;;25.90;11.32;;;7.20;67.60;;;;;;6146626;28;20046;-71
2021/12/25 04:09:24;;;;;;;28.00;11.93;;;7.20;67.90;;;;;;6146324;28;20039;-71
2021/12/25 04:12:25;;;;;;;23.83;10.80;;;7.20;67.90;;;;;;6146474;28;20031;-72
2021/12/25 04:15:27;;;;;;;24.00;10.50;;;7.10;67.90;;;;;;6184952;28;20351;-71
2021/12/25 04:18:28;;;;;;;31.73;12.35;;;7.10;68.00;;;;;;6152835;28;20034;-71
2021/12/25 04:21:30;;;;;;;29.17;11.80;;;7.10;68.00;;;;;;6179609;28;20036;-71
2021/12/25 04:24:35;;;;;;;29.92;11.90;;;7.20;68.10;;;;;;6166824;28;20444;-71
2021/12/25 04:27:38;;;;;;;24.90;11.10;;;7.20;67.90;;;;;;6178800;28;20041;-72
2021/12/25 05:04:03;;;;;;;17.33;8.23;;;7.30;68.20;;;;;;6249923;28;20029;-71
2021/12/25 05:07:10;;;;;;;18.38;7.78;;;7.30;68.20;;;;;;6243951;28;20040;-71
2021/12/25 05:10:11;;;;;;;12.85;6.80;;;7.40;68.60;;;;;;6232013;28;20041;-71
2021/12/25 05:13:13;;;;;;;23.10;8.38;;;7.40;68.20;;;;;;6246919;28;20064;-71
2021/12/25 05:16:14;;;;;;;22.75;8.85;;;7.40;68.00;;;;;;6272328;28;20048;-71
2021/12/25 05:19:15;;;;;;;15.52;8.38;;;7.50;68.00;;;;;;6248027;28;20044;-71
2021/12/25 05:22:18;;;;;;;23.33;9.60;;;7.40;67.80;;;;;;6266854;28;20056;-71
2021/12/25 05:25:19;;;;;;;18.15;8.55;;;7.40;67.80;;;;;;6232647;28;20128;-71
2021/12/25 05:28:35;;;;;;;21.08;8.50;;;7.40;67.80;;;;;;6260599;28;20038;-71
2021/12/25 05:31:37;;;;;;;21.15;7.28;;;7.30;67.80;;;;;;6248604;28;20041;-71
2021/12/25 05:34:48;;;;;;;16.70;7.30;;;7.30;67.80;;;;;;6247181;28;20116;-71
2021/12/25 05:38:09;;;;;;;25.08;8.80;;;7.20;67.90;;;;;;6248788;28;20056;-71
2021/12/25 05:41:20;;;;;;;19.98;8.52;;;7.20;67.90;;;;;;6230722;28;20108;-71
2021/12/25 05:44:21;;;;;;;18.65;7.63;;;7.20;67.90;;;;;;6260963;28;20045;-71
2021/12/25 05:47:43;;;;;;;13.40;7.15;;;7.30;68.10;;;;;;6240955;28;20029;-71
2021/12/25 05:50:56;;;;;;;21.58;8.20;;;7.20;68.10;;;;;;6228253;28;20053;-72
2021/12/25 05:54:00;;;;;;;14.30;7.47;;;7.20;68.10;;;;;;6245771;28;20030;-71
2021/12/25 05:57:04;;;;;;;14.02;7.93;;;7.30;68.40;;;;;;6222137;28;20029;-72
2021/12/25 06:00:38;;;;;;;30.20;7.07;;;7.30;68.20;;;;;;6218166;28;20038;-72
2021/12/25 06:03:40;;;;;;;24.63;8.23;;;7.30;68.10;;;;;;6188060;28;20041;-71
2021/12/25 06:06:41;;;;;;;16.88;8.50;;;7.30;68.00;;;;;;6177981;28;20034;-71
2021/12/25 06:09:42;;;;;;;19.52;8.75;;;7.40;68.00;;;;;;6219433;28;20414;-71
2021/12/25 06:12:44;;;;;;;25.65;9.23;;;7.40;67.80;;;;;;6202320;28;20045;-71
2021/12/25 06:15:46;;;;;;;22.27;9.15;;;7.40;67.60;;;;;;6190302;28;20076;-71
2021/12/25 06:18:58;;;;;;;18.33;8.23;;;7.50;67.50;;;;;;6234271;28;20423;-72
2021/12/25 06:22:00;;;;;;;17.42;8.82;;;7.40;67.20;;;;;;6252065;28;20075;-73
2021/12/25 06:25:23;;;;;;;25.17;9.05;;;7.40;67.10;;;;;;6238306;28;20478;-72
2021/12/25 06:28:39;;;;;;;18.92;7.07;;;7.40;67.20;;;;;;6232557;28;20037;-71
2021/12/25 06:32:00;;;;;;;19.52;7.95;;;7.40;67.10;;;;;;6227432;28;20037;-72
2021/12/25 06:35:19;;;;;;;17.27;7.00;;;7.50;67.10;;;;;;6217913;28;20033;-71
2021/12/25 06:38:44;;;;;;;13.95;7.68;;;7.50;67.20;;;;;;6218242;28;20046;-73
2021/12/25 06:41:54;;;;;;;14.60;7.00;;;7.50;67.20;;;;;;6187803;28;20478;-71
2021/12/25 06:44:56;;;;;;;15.02;7.90;;;7.50;67.10;;;;;;6216745;28;20447;-72
2021/12/25 06:47:57;;;;;;;16.15;7.07;;;7.50;67.20;;;;;;6243857;28;20462;-72
2021/12/25 06:51:17;;;;;;;18.45;7.88;;;7.50;67.20;;;;;;6242770;28;20049;-71
2021/12/25 06:54:30;;;;;;;19.00;8.32;;;7.50;67.90;;;;;;6226909;28;20041;-71
2021/12/25 06:57:54;;;;;;;16.67;7.03;;;7.60;67.20;;;;;;6243729;28;20037;-71
2021/12/25 07:00:55;;;;;;;17.52;7.85;;;7.60;67.10;;;;;;6209157;28;20037;-71
2021/12/25 07:03:56;;;;;;;16.23;6.45;;;7.60;67.10;;;;;;6228258;28;20098;-71
2021/12/25 07:07:35;;;;;;;13.05;6.20;;;7.60;67.10;;;;;;6241642;28;20112;-71
2021/12/25 07:11:00;;;;;;;16.77;7.35;;;7.60;67.70;;;;;;6225199;28;20045;-71
2021/12/25 07:14:21;;;;;;;22.35;7.78;;;7.70;67.30;;;;;;6204323;28;20042;-71
2021/12/25 07:17:22;;;;;;;23.88;7.32;;;7.70;67.30;;;;;;6193266;28;20146;-71
2021/12/25 07:20:56;;;;;;;16.60;7.40;;;7.80;67.40;;;;;;6112793;29;20044;-71
2021/12/25 07:24:14;;;;;;;18.37;6.53;;;8.00;67.40;;;;;;6121406;29;20461;-71
2021/12/25 07:27:27;;;;;;;17.95;7.57;;;8.10;67.30;;;;;;6102656;29;20062;-71
2021/12/25 07:30:33;;;;;;;12.63;5.85;;;8.10;67.00;;;;;;6120479;29;20102;-71
2021/12/25 07:33:36;;;;;;;12.07;5.50;;;8.20;66.90;;;;;;6112058;29;20036;-71
2021/12/25 07:36:37;;;;;;;16.30;6.20;;;8.20;66.90;;;;;;6097889;29;20051;-71
2021/12/25 07:39:39;;;;;;;13.52;5.03;;;8.30;66.90;;;;;;6098119;29;20024;-71
2021/12/25 07:42:40;;;;;;;20.63;6.47;;;8.30;66.80;;;;;;6098015;29;20028;-71
2021/12/25 07:45:55;;;;;;;14.13;5.93;;;8.30;66.70;;;;;;6109721;29;20095;-71
2021/12/25 07:48:58;;;;;;;19.30;7.53;;;8.30;66.60;;;;;;6121584;29;20495;-71
2021/12/25 07:51:59;;;;;;;15.20;6.80;;;8.40;66.60;;;;;;6138131;28;20381;-71
2021/12/25 07:55:00;;;;;;;17.70;7.22;;;8.40;66.40;;;;;;6161005;28;20118;-71
2021/12/25 07:58:02;;;;;;;19.52;7.75;;;8.40;66.30;;;;;;6252324;28;20401;-71
2021/12/25 08:01:03;;;;;;;20.58;8.68;;;8.40;66.20;;;;;;6228410;28;20041;-71
2021/12/25 08:04:04;;;;;;;16.20;7.75;;;8.40;66.10;;;;;;6245938;28;20048;-71
2021/12/25 08:07:05;;;;;;;16.90;8.15;;;8.40;66.20;;;;;;6251424;28;20044;-71
2021/12/25 08:10:14;;;;;;;19.95;8.10;;;8.30;66.10;;;;;;6251399;28;20412;-71
2021/12/25 08:13:16;;;;;;;21.77;8.18;;;8.40;66.20;;;;;;6225832;28;20030;-71
2021/12/25 08:16:17;;;;;;;20.45;7.95;;;8.50;66.40;;;;;;6202305;28;20037;-72
2021/12/25 08:19:18;;;;;;;16.50;7.47;;;8.60;66.20;;;;;;6201687;28;20502;-73
2021/12/25 08:22:39;;;;;;;17.15;7.15;;;8.70;66.10;;;;;;6226959;28;20066;-72
2021/12/25 08:26:00;;;;;;;15.63;7.75;;;8.80;65.80;;;;;;6235008;28;20450;-71
2021/12/25 08:29:23;;;;;;;20.73;8.15;;;8.80;65.40;;;;;;6251750;28;20041;-72
2021/12/25 08:32:58;;;;;;;21.10;8.65;;;8.90;65.10;;;;;;6225221;28;20080;-72
2021/12/25 08:36:18;;;;;;;14.90;7.35;;;8.90;65.00;;;;;;6224574;28;20026;-72
2021/12/25 08:39:19;;;;;;;21.90;7.80;;;8.90;64.80;;;;;;6225150;28;20120;-72
2021/12/25 08:42:21;;;;;;;15.43;8.00;;;8.90;64.70;;;;;;6208765;28;20087;-71
2021/12/25 08:45:41;;;;;;;10.82;6.25;;;8.90;64.80;;;;;;6224778;28;20040;-71
2021/12/25 08:48:42;;;;;;;11.32;5.93;;;8.90;64.70;;;;;;6225050;28;20426;-72
2021/12/25 08:51:45;;;;;;;14.75;6.13;;;8.90;64.80;;;;;;6207144;28;20147;-71
2021/12/25 08:54:50;;;;;;;15.68;7.20;;;8.90;65.20;;;;;;6208707;28;20073;-71
2021/12/25 08:57:52;;;;;;;19.63;6.90;;;8.80;65.20;;;;;;6208141;28;20329;-72
2021/12/25 09:00:57;;;;;;;13.82;5.05;;;8.80;65.40;;;;;;6206773;28;20092;-72
2021/12/25 09:03:59;;;;;;;15.50;6.97;;;8.80;65.50;;;;;;6201978;28;20130;-72
2021/12/25 09:07:00;;;;;;;13.82;5.28;;;8.80;65.60;;;;;;6203116;28;20041;-72
2021/12/25 09:10:02;;;;;;;19.23;6.40;;;8.70;65.70;;;;;;6223718;28;20046;-71
2021/12/25 09:13:03;;;;;;;13.73;6.25;;;8.70;65.80;;;;;;6223670;28;20125;-72
2021/12/25 09:16:04;;;;;;;14.10;6.85;;;8.70;65.90;;;;;;6268008;28;20048;-70
2021/12/25 09:19:06;;;;;;;18.17;6.57;;;8.80;66.00;;;;;;6255790;28;20052;-74
2021/12/25 09:22:09;;;;;;;13.07;5.35;;;8.80;65.90;;;;;;6273770;28;20108;-72
2021/12/25 09:25:11;;;;;;;14.48;5.07;;;8.90;65.80;;;;;;6272165;28;20029;-72
2021/12/25 09:28:13;;;;;;;14.60;5.25;;;8.90;65.70;;;;;;6269908;28;20366;-72
2021/12/25 09:31:15;;;;;;;13.48;5.00;;;8.90;65.70;;;;;;6216270;28;20033;-72
2021/12/25 09:34:16;;;;;;;14.65;6.28;;;9.00;65.70;;;;;;6248141;28;20399;-71
2021/12/25 09:37:18;;;;;;;21.13;5.97;;;9.10;65.70;;;;;;6263612;28;20037;-72
2021/12/25 09:40:20;;;;;;;12.50;5.30;;;9.10;65.60;;;;;;6248510;28;20061;-72
2021/12/25 09:43:21;;;;;;;12.68;5.72;;;9.10;65.50;;;;;;6247784;28;20026;-72
2021/12/25 09:46:22;;;;;;;12.30;5.63;;;9.20;65.50;;;;;;6271508;28;20025;-71
2021/12/25 09:49:23;;;;;;;14.90;5.70;;;9.20;65.30;;;;;;6272801;28;20045;-72
2021/12/25 09:52:24;;;;;;;13.02;6.00;;;9.30;65.20;;;;;;6270611;28;20389;-71
2021/12/25 09:55:25;;;;;;;18.35;7.60;;;9.30;65.20;;;;;;6235662;28;20117;-71
2021/12/25 09:58:26;;;;;;;11.60;5.47;;;9.30;65.10;;;;;;6240777;28;20034;-72
2021/12/25 10:01:48;;;;;;;13.60;6.97;;;9.30;65.20;;;;;;6245324;28;20030;-71
2021/12/25 10:04:54;;;;;;;14.77;6.43;;;9.40;65.20;;;;;;6245482;28;20376;-72
2021/12/25 10:08:17;;;;;;;11.00;6.32;;;9.40;65.10;;;;;;6246460;28;20474;-73
2021/12/25 10:11:18;;;;;;;19.42;7.78;;;9.40;64.80;;;;;;6243300;28;20121;-71
2021/12/25 10:14:19;;;;;;;11.48;6.43;;;9.40;64.80;;;;;;6252468;28;20044;-72
2021/12/25 10:17:24;;;;;;;15.50;7.25;;;9.50;64.80;;;;;;6270690;28;20037;-72
2021/12/25 10:20:33;;;;;;;14.32;6.63;;;9.50;64.80;;;;;;6269142;28;20037;-72
2021/12/25 10:23:36;;;;;;;14.90;5.50;;;9.60;64.70;;;;;;6270813;28;20044;-71
2021/12/25 10:26:40;;;;;;;14.30;6.55;;;9.60;64.70;;;;;;6220411;28;20053;-72
2021/12/25 10:29:42;;;;;;;13.90;5.78;;;9.70;64.70;;;;;;6221980;28;20030;-71
2021/12/25 10:32:43;;;;;;;11.32;5.63;;;9.80;64.50;;;;;;6219398;28;20048;-71
2021/12/25 10:35:44;;;;;;;16.77;6.72;;;9.90;64.30;;;;;;6261135;28;20038;-72
2021/12/25 10:39:07;;;;;;;18.55;7.63;;;9.90;64.20;;;;;;6244948;28;20041;-71
2021/12/25 10:42:15;;;;;;;13.27;6.50;;;10.00;64.30;;;;;;6244076;28;20030;-72
2021/12/25 10:45:17;;;;;;;17.05;7.95;;;10.00;63.90;;;;;;6243507;28;20043;-71
2021/12/25 10:48:27;;;;;;;16.27;6.93;;;10.10;63.90;;;;;;6268973;28;20358;-73
2021/12/25 10:51:30;;;;;;;17.27;6.60;;;10.20;63.90;;;;;;6269486;28;20051;-72
2021/12/25 10:54:50;;;;;;;16.52;6.40;;;10.20;63.70;;;;;;6271443;28;20041;-72
2021/12/25 10:57:57;;;;;;;15.20;6.47;;;10.20;63.50;;;;;;6269589;28;20060;-71
2021/12/25 11:00:58;;;;;;;14.00;6.20;;;10.20;63.40;;;;;;6245193;28;20117;-71
2021/12/25 11:03:59;;;;;;;15.43;7.20;;;10.20;63.50;;;;;;6212764;28;20060;-71
2021/12/25 11:07:15;;;;;;;31.85;9.45;;;10.20;63.50;;;;;;6238221;28;20040;-71
2021/12/25 11:10:18;;;;;;;25.75;11.43;;;10.10;63.70;;;;;;6207868;28;20053;-71
2021/12/25 11:13:21;;;;;;;25.63;10.18;;;10.10;63.90;;;;;;6195964;28;20038;-71
2021/12/25 11:16:28;;;;;;;41.00;16.35;;;10.20;64.00;;;;;;6220609;28;20112;-71
2021/12/25 11:19:34;;;;;;;23.08;9.63;;;10.20;63.90;;;;;;6220573;28;20073;-71
2021/12/25 11:22:52;;;;;;;16.23;8.05;;;10.10;63.90;;;;;;6204228;28;20088;-71
2021/12/25 11:25:53;;;;;;;34.25;11.07;;;10.10;64.00;;;;;;6220297;28;20119;-73
2021/12/25 11:28:54;;;;;;;28.65;11.23;;;10.00;64.00;;;;;;6224280;28;20092;-73
2021/12/25 11:31:58;;;;;;;20.83;9.38;;;10.00;64.20;;;;;;6221761;28;20034;-72
2021/12/25 11:34:59;;;;;;;13.93;7.40;;;10.00;64.30;;;;;;6244006;28;20033;-71
2021/12/25 11:38:02;;;;;;;13.10;6.22;;;10.00;64.30;;;;;;6245836;28;20182;-71
2021/12/25 11:41:06;;;;;;;22.42;6.50;;;10.10;64.30;;;;;;6261246;28;20038;-73
2021/12/25 11:44:28;;;;;;;19.33;7.65;;;10.10;64.30;;;;;;6267294;28;20032;-72
2021/12/25 11:47:36;;;;;;;20.40;8.43;;;10.20;64.30;;;;;;6268998;28;20033;-72
2021/12/25 11:50:42;;;;;;;19.00;7.50;;;10.20;64.20;;;;;;6270159;28;20353;-71
2021/12/25 11:53:53;;;;;;;19.35;7.07;;;10.30;64.20;;;;;;6269382;28;20123;-71
2021/12/25 11:57:31;;;;;;;26.88;10.30;;;10.40;63.90;;;;;;6244258;28;20037;-71
2021/12/25 12:00:41;;;;;;;27.02;11.82;;;10.40;63.50;;;;;;6249173;28;20045;-71
2021/12/25 12:03:54;;;;;;;21.55;8.70;;;10.50;63.50;;;;;;6239136;28;20493;-71
2021/12/25 12:07:03;;;;;;;16.85;8.52;;;10.60;63.50;;;;;;6243222;28;20037;-71
2021/12/25 12:10:44;;;;;;;18.75;7.85;;;10.60;63.30;;;;;;6243176;28;20034;-72
2021/12/25 12:14:27;;;;;;;22.38;9.20;;;10.70;63.10;;;;;;6249289;28;20462;-72
2021/12/25 12:17:58;;;;;;;23.17;9.27;;;10.80;63.10;;;;;;6171815;28;20035;-71
2021/12/25 12:21:10;;;;;;;31.95;13.57;;;10.90;63.10;;;;;;6171077;28;20054;-70
2021/12/25 12:24:48;;;;;;;33.80;12.35;;;11.00;62.80;;;;;;6171442;28;20471;-70
2021/12/25 12:27:54;;;;;;;25.98;9.38;;;11.10;62.60;;;;;;6147270;28;20063;-71
2021/12/25 12:30:55;;;;;;;44.63;18.73;;;11.10;62.50;;;;;;6144760;28;20050;-72
2021/12/25 12:33:56;;;;;;;29.73;11.75;;;11.20;62.40;;;;;;6147032;28;20046;-72
2021/12/25 12:37:19;;;;;;;23.35;11.48;;;11.30;62.30;;;;;;6145758;28;20074;-72
2021/12/25 12:40:25;;;;;;;26.85;12.07;;;11.40;62.00;;;;;;6167493;28;20035;-72
2021/12/25 12:43:54;;;;;;;18.90;8.95;;;11.40;61.60;;;;;;6176900;28;20030;-72
2021/12/25 12:47:02;;;;;;;14.30;6.93;;;11.50;61.60;;;;;;6172054;28;20049;-72
2021/12/25 12:50:05;;;;;;;17.98;6.38;;;11.60;61.60;;;;;;6172821;28;20122;-72
2021/12/25 12:53:09;;;;;;;16.42;6.70;;;11.60;61.40;;;;;;6187227;28;20041;-72
2021/12/25 12:56:11;;;;;;;17.00;6.78;;;11.60;61.40;;;;;;6266655;28;20028;-72
2021/12/25 12:59:12;;;;;;;17.38;9.50;;;11.60;61.20;;;;;;6236934;28;20336;-71
2021/12/25 13:02:14;;;;;;;19.75;8.05;;;11.60;61.20;;;;;;6226541;28;20041;-71
2021/12/25 13:05:19;;;;;;;23.30;9.70;;;11.60;61.30;;;;;;6230691;28;20033;-72
2021/12/25 13:08:27;;;;;;;14.82;6.85;;;11.70;61.50;;;;;;6249405;28;20033;-72
2021/12/25 13:11:36;;;;;;;18.67;6.85;;;11.80;61.50;;;;;;6206391;28;20407;-71
2021/12/25 13:14:39;;;;;;;12.35;6.22;;;11.80;61.30;;;;;;6240318;28;20029;-73
2021/12/25 13:17:55;;;;;;;11.43;6.22;;;11.90;61.10;;;;;;6273679;28;20033;-73
2021/12/25 13:20:57;;;;;;;13.35;6.43;;;12.00;61.00;;;;;;6272128;28;20041;-71
2021/12/25 13:24:07;;;;;;;21.63;8.90;;;12.00;60.80;;;;;;6272311;28;20049;-72
2021/12/25 13:27:17;;;;;;;14.27;6.85;;;12.10;60.70;;;;;;6272894;28;20535;-72
2021/12/25 13:30:19;;;;;;;13.15;6.28;;;12.10;60.50;;;;;;6254833;28;20404;-72
2021/12/25 13:33:23;;;;;;;18.95;8.85;;;12.10;60.30;;;;;;6244890;28;20159;-71
2021/12/25 13:36:28;;;;;;;17.70;7.25;;;12.10;60.20;;;;;;6231244;28;20095;-71
2021/12/25 13:39:32;;;;;;;17.63;7.97;;;12.20;60.30;;;;;;6224841;28;20378;-72
2021/12/25 13:42:33;;;;;;;17.20;7.40;;;12.20;60.20;;;;;;6225555;28;20062;-72
2021/12/25 13:45:36;;;;;;;19.58;9.30;;;12.20;60.20;;;;;;6239726;28;20052;-72
2021/12/25 13:48:39;;;;;;;14.65;7.43;;;12.10;60.20;;;;;;6249667;28;20343;-72
2021/12/25 13:51:43;;;;;;;18.20;7.88;;;12.10;60.20;;;;;;6248621;28;20394;-71
2021/12/25 13:54:47;;;;;;;15.35;6.78;;;12.20;60.30;;;;;;6245118;28;20025;-72
2021/12/25 13:57:56;;;;;;;18.40;8.23;;;12.20;60.40;;;;;;6248114;28;20033;-72
2021/12/25 14:00:57;;;;;;;14.80;6.80;;;12.20;60.30;;;;;;6223306;28;20038;-72
2021/12/25 14:04:12;;;;;;;14.35;5.82;;;12.20;60.40;;;;;;6227071;28;20038;-72
2021/12/25 14:07:17;;;;;;;16.23;7.00;;;12.30;60.50;;;;;;6233822;28;20065;-71
2021/12/25 14:10:21;;;;;;;14.55;5.75;;;12.30;60.20;;;;;;6248502;28;20120;-72
2021/12/25 14:13:23;;;;;;;15.13;6.65;;;12.20;60.00;;;;;;6231337;28;20037;-72
2021/12/25 14:16:24;;;;;;;13.55;6.28;;;12.10;60.20;;;;;;6271168;28;20033;-72
2021/12/25 14:19:28;;;;;;;15.15;7.05;;;12.00;60.50;;;;;;6255771;28;20044;-71
2021/12/25 14:22:29;;;;;;;15.77;6.72;;;11.90;60.80;;;;;;6231387;28;20037;-72
2021/12/25 14:25:33;;;;;;;18.73;6.80;;;11.90;61.00;;;;;;6267231;28;20369;-71
2021/12/25 14:28:36;;;;;;;14.98;7.10;;;11.80;61.20;;;;;;6261379;28;20121;-71
2021/12/25 14:31:41;;;;;;;24.75;10.43;;;11.80;61.20;;;;;;6246509;28;20512;-71
2021/12/25 14:34:42;;;;;;;19.85;8.48;;;11.70;61.50;;;;;;6249519;28;20120;-71
2021/12/25 14:37:43;;;;;;;15.45;7.40;;;11.70;61.70;;;;;;6246971;28;20041;-71
2021/12/25 14:40:47;;;;;;;14.15;7.10;;;11.70;61.90;;;;;;6247166;28;20354;-72
2021/12/25 14:43:48;;;;;;;17.50;7.15;;;11.60;62.10;;;;;;6250470;28;20051;-72
2021/12/25 14:47:14;;;;;;;16.58;6.65;;;11.60;62.20;;;;;;6272713;28;20041;-72
2021/12/25 14:50:18;;;;;;;15.85;6.32;;;11.50;62.60;;;;;;6252511;28;20037;-72
2021/12/25 14:53:20;;;;;;;18.38;5.85;;;11.50;62.80;;;;;;6271476;28;20033;-72
2021/12/25 14:56:24;;;;;;;16.00;7.78;;;11.50;62.80;;;;;;6270975;28;20359;-73
2021/12/25 14:59:26;;;;;;;15.63;6.18;;;11.50;62.90;;;;;;6242209;28;20159;-72
2021/12/25 15:02:27;;;;;;;18.20;8.10;;;11.40;63.00;;;;;;6246092;28;20038;-72
2021/12/25 15:05:40;;;;;;;13.90;6.93;;;11.40;63.10;;;;;;6221267;28;20030;-72
2021/12/25 15:08:41;;;;;;;14.70;6.10;;;11.40;63.20;;;;;;6223007;28;20057;-72
2021/12/25 15:12:02;;;;;;;10.77;5.75;;;11.50;63.20;;;;;;6220699;28;20363;-72
2021/12/25 15:15:18;;;;;;;13.65;6.03;;;11.40;63.00;;;;;;6231848;28;20041;-72
2021/12/25 15:18:29;;;;;;;10.60;5.90;;;11.40;63.00;;;;;;6247301;28;20040;-72
2021/12/25 15:21:30;;;;;;;23.85;9.45;;;11.40;63.20;;;;;;6228916;28;20029;-72
2021/12/25 15:24:31;;;;;;;14.55;8.35;;;11.30;63.40;;;;;;6247299;28;20121;-72
2021/12/25 15:27:41;;;;;;;19.08;6.75;;;11.20;63.60;;;;;;6245952;28;20057;-72
2021/12/25 15:30:42;;;;;;;15.43;6.50;;;11.20;63.90;;;;;;6247252;28;20044;-72
2021/12/25 15:33:48;;;;;;;17.23;5.60;;;11.10;64.10;;;;;;6217957;28;20038;-72
2021/12/25 15:36:49;;;;;;;16.63;6.53;;;11.10;64.40;;;;;;6219435;28;20052;-72
2021/12/25 15:39:55;;;;;;;14.10;5.50;;;11.10;64.50;;;;;;6220334;28;20041;-72
2021/12/25 15:42:56;;;;;;;15.43;5.63;;;11.00;64.50;;;;;;6204464;28;20040;-72
2021/12/25 15:46:01;;;;;;;36.30;10.63;;;11.00;64.70;;;;;;6247308;28;20045;-72
2021/12/25 15:49:03;;;;;;;18.65;8.15;;;10.90;64.80;;;;;;6247179;28;20343;-72
2021/12/25 15:52:05;;;;;;;14.32;6.80;;;10.90;65.00;;;;;;6247060;28;20458;-72
2021/12/25 15:55:07;;;;;;;16.05;7.28;;;10.90;65.20;;;;;;6245768;28;20043;-72
2021/12/25 15:58:09;;;;;;;12.80;6.05;;;10.90;65.20;;;;;;6247913;28;20056;-72
2021/12/25 16:01:10;;;;;;;19.92;8.52;;;10.90;65.20;;;;;;6235076;28;20388;-72
2021/12/25 16:04:13;;;;;;;19.73;7.72;;;11.00;65.20;;;;;;6240366;28;20137;-72
2021/12/25 16:07:14;;;;;;;15.73;7.47;;;11.00;65.20;;;;;;6245348;28;20304;-72
2021/12/25 16:10:15;;;;;;;27.00;10.63;;;11.00;65.10;;;;;;6244100;28;20044;-72
2021/12/25 16:13:19;;;;;;;12.75;6.28;;;11.00;65.10;;;;;;6244705;28;20037;-72
2021/12/25 16:16:20;;;;;;;16.67;7.38;;;11.00;65.40;;;;;;6243265;28;20044;-72
2021/12/25 16:19:22;;;;;;;17.48;7.10;;;11.10;65.30;;;;;;6208871;28;20399;-72
2021/12/25 16:22:23;;;;;;;20.55;7.05;;;11.00;65.30;;;;;;6249919;28;20132;-72
2021/12/25 16:25:24;;;;;;;14.55;5.85;;;11.00;65.40;;;;;;6250018;28;20095;-72
2021/12/25 16:28:25;;;;;;;13.25;6.07;;;11.00;65.40;;;;;;6249677;28;20131;-72
2021/12/25 16:31:27;;;;;;;16.73;8.05;;;11.00;65.40;;;;;;6250227;28;20044;-71
2021/12/25 16:34:28;;;;;;;16.65;7.38;;;11.00;65.40;;;;;;6249370;28;20112;-70
2021/12/25 16:37:29;;;;;;;20.05;7.63;;;11.10;65.30;;;;;;6249553;28;20049;-70
2021/12/25 16:40:31;;;;;;;13.45;6.22;;;11.10;65.30;;;;;;6251325;28;20087;-71
2021/12/25 16:43:34;;;;;;;16.67;6.95;;;11.10;65.20;;;;;;6249923;28;20354;-71
2021/12/25 16:46:36;;;;;;;18.20;7.93;;;11.10;65.10;;;;;;6275427;28;20037;-70
2021/12/25 16:49:38;;;;;;;18.88;7.30;;;11.00;65.10;;;;;;6274932;28;20454;-70
2021/12/25 16:52:39;;;;;;;20.65;6.57;;;11.00;65.20;;;;;;6257597;28;20049;-73
2021/12/25 16:55:40;;;;;;;20.92;8.85;;;10.90;65.40;;;;;;6257867;28;20033;-71
2021/12/25 16:58:41;;;;;;;17.75;7.88;;;10.90;65.50;;;;;;6268717;28;20041;-71
2021/12/25 17:01:43;;;;;;;17.02;7.43;;;10.80;65.50;;;;;;6232805;28;20117;-71
2021/12/25 17:04:45;;;;;;;17.95;7.80;;;10.80;65.80;;;;;;6251368;28;20026;-71
2021/12/25 17:07:46;;;;;;;20.30;9.07;;;10.80;65.90;;;;;;6221551;28;20065;-73
2021/12/25 17:10:49;;;;;;;19.33;8.15;;;10.70;66.10;;;;;;6242488;28;20029;-71
2021/12/25 17:13:50;;;;;;;18.15;8.13;;;10.60;66.20;;;;;;6251853;28;20029;-72
2021/12/25 17:16:51;;;;;;;24.13;8.68;;;10.60;66.40;;;;;;6275122;28;20040;-72
2021/12/25 17:19:52;;;;;;;16.15;7.80;;;10.60;66.40;;;;;;6274659;28;20454;-72
2021/12/25 17:22:53;;;;;;;18.95;7.03;;;10.60;66.80;;;;;;6276270;28;20061;-71